Data for 05/09/2005

Time Sea-Level Adjusted Pressure Absolute Pressure Temperature Relative Humidity Dew Point   
(mb) (inHg) (mb) (inHg) (C) (F) (%) (C) (F)
00:05 1015 29.97 844 24.92 8.7 47.6 69 3.3 38
00:10 1014 29.94 844 24.92 8.7 47.6 69 3.3 38
00:15 1014 29.94 844 24.92 8.7 47.6 69 3.4 38.2
00:20 1014 29.94 844 24.92 8.6 47.5 69 3.3 38
00:25 1014 29.94 843 24.89 8.6 47.5 69 3.2 37.8
00:30 1014 29.94 843 24.89 8.6 47.5 69 3.3 37.9
00:35 1014 29.94 843 24.89 8.5 47.2 70 3.3 37.9
00:40 1014 29.94 843 24.89 8.3 47 70 3.2 37.8
00:45 1014 29.94 843 24.89 8.2 46.7 71 3.2 37.7
00:50 1014 29.94 843 24.89 8.1 46.7 70 3.1 37.5
00:55 1014 29.94 843 24.89 8.1 46.7 71 3.2 37.8
01:00 1014 29.94 843 24.89 8 46.4 71 3.1 37.5
01:05 1014 29.94 843 24.89 8 46.3 72 3.2 37.7
01:10 1014 29.94 843 24.89 7.9 46.3 72 3.3 37.9
01:15 1014 29.94 843 24.89 7.8 46.1 72 3.1 37.6
01:20 1014 29.94 843 24.89 7.8 46 73 3.3 37.9
01:25 1014 29.94 843 24.89 7.7 45.9 73 3.2 37.8
01:30 1014 29.94 843 24.89 7.6 45.8 73 3.2 37.7
01:35 1014 29.94 843 24.89 7.6 45.7 73 3.1 37.7
01:40 1014 29.94 843 24.89 7.6 45.7 73 3.2 37.7
01:45 1013 29.91 843 24.89 7.5 45.5 74 3.3 37.9
01:50 1013 29.91 843 24.89 7.4 45.4 74 3.2 37.7
01:55 1013 29.91 843 24.89 7.4 45.4 74 3.1 37.6
02:00 1013 29.91 843 24.89 7.5 45.4 75 3.3 37.9
02:05 1013 29.91 843 24.89 7.4 45.3 75 3.3 37.9
02:10 1013 29.91 843 24.89 7.3 45.1 75 3.2 37.7
02:15 1013 29.91 842 24.86 7.3 45.2 76 3.3 38
02:20 1013 29.91 842 24.86 7.3 45.2 76 3.3 38
02:25 1013 29.91 842 24.86 7.2 45 76 3.3 37.9
02:30 1013 29.91 842 24.86 7.2 44.9 76 3.3 37.9
02:35 1013 29.91 842 24.86 7.2 44.9 77 3.4 38.1
02:40 1013 29.91 842 24.86 7.2 44.9 77 3.4 38.1
02:45 1013 29.91 842 24.86 7.1 44.7 78 3.5 38.2
02:50 1013 29.91 842 24.86 7.1 44.8 78 3.5 38.3
02:55 1013 29.91 842 24.86 7.1 44.7 78 3.5 38.3
03:00 1013 29.91 842 24.86 7 44.7 78 3.5 38.2
03:05 1013 29.91 842 24.86 7.2 44.9 77 3.5 38.3
03:10 1013 29.91 842 24.86 7.2 45 77 3.5 38.3
03:15 1013 29.91 842 24.86 7.3 45.1 77 3.5 38.4
03:20 1013 29.91 842 24.86 7.2 45 77 3.5 38.3
03:25 1013 29.91 842 24.86 7.2 44.9 78 3.6 38.5
03:30 1013 29.91 842 24.86 7.1 44.8 78 3.6 38.4
03:35 1013 29.91 842 24.86 7 44.7 78 3.5 38.4
03:40 1013 29.91 842 24.86 7 44.5 79 3.6 38.5
03:45 1013 29.91 842 24.86 6.8 44.3 80 3.6 38.5
03:50 1013 29.91 842 24.86 6.8 44.2 81 3.7 38.6
03:55 1013 29.91 842 24.86 6.7 44 81 3.7 38.6
04:00 1013 29.91 842 24.86 6.6 43.9 82 3.7 38.7
04:05 1013 29.91 842 24.86 6.6 43.8 82 3.7 38.7
04:10 1013 29.91 842 24.86 6.5 43.7 83 3.8 38.9
04:15 1013 29.91 842 24.86 6.5 43.7 83 3.9 39
04:20 1013 29.91 842 24.86 6.5 43.6 83 3.8 38.8
04:25 1012 29.88 842 24.86 6.6 43.8 83 3.9 39
04:30 1012 29.88 842 24.86 6.5 43.8 83 3.9 39
04:35 1012 29.88 842 24.86 6.5 43.7 84 3.9 39.1
04:40 1012 29.88 841 24.83 6.5 43.6 84 4 39.1
04:45 1012 29.88 841 24.83 6.4 43.5 85 4 39.2
04:50 1012 29.88 841 24.83 6.3 43.4 85 4 39.2
04:55 1012 29.88 841 24.83 6.3 43.4 86 4.1 39.4
05:00 1012 29.88 841 24.83 6.3 43.3 86 4.2 39.5
05:05 1012 29.88 841 24.83 6.2 43.2 86 4.2 39.5
05:10 1012 29.88 841 24.83 6.3 43.3 86 4.1 39.4
05:15 1012 29.88 841 24.83 6.3 43.3 86 4.2 39.5
05:20 1012 29.88 841 24.83 6.3 43.3 87 4.3 39.7
05:25 1012 29.88 841 24.83 6.2 43.2 87 4.3 39.8
05:30 1012 29.88 841 24.83 6.2 43.2 87 4.3 39.7
05:35 1012 29.88 841 24.83 6.2 43.1 88 4.3 39.7
05:40 1012 29.88 841 24.83 6.2 43.1 87 4.1 39.5
05:45 1012 29.88 841 24.83 6.1 43 88 4.3 39.7
05:50 1012 29.88 841 24.83 6.1 42.9 88 4.3 39.7
05:55 1012 29.88 841 24.83 6 42.7 89 4.4 39.8
06:00 1012 29.88 841 24.83 5.9 42.6 89 4.2 39.6
06:05 1012 29.88 841 24.83 5.9 42.7 89 4.2 39.6
06:10 1012 29.88 841 24.83 5.9 42.6 90 4.3 39.8
06:15 1012 29.88 841 24.83 6 42.7 88 4.2 39.6
06:20 1012 29.88 841 24.83 6 42.8 88 4.2 39.6
06:25 1012 29.88 841 24.83 6 42.8 88 4.2 39.5
06:30 1011 29.85 841 24.83 6 42.8 88 4.1 39.5
06:35 1011 29.85 841 24.83 6 42.8 88 4.2 39.6
06:40 1012 29.88 841 24.83 6 42.8 88 4.1 39.4
06:45 1012 29.88 841 24.83 6.1 43 87 4.1 39.4
06:50 1011 29.85 841 24.83 6.1 42.9 87 4.1 39.4
06:55 1012 29.88 841 24.83 6 42.8 88 4.1 39.4
07:00 1012 29.88 841 24.83 6 42.9 88 4.2 39.5
07:05 1012 29.88 841 24.83 6 42.9 87 4.1 39.3
07:10 1012 29.88 841 24.83 6.1 43 86 4 39.1
07:15 1012 29.88 841 24.83 6.1 43 87 4.1 39.4
07:20 1012 29.88 841 24.83 6.1 42.9 87 4 39.3
07:25 1012 29.88 841 24.83 6.1 43.1 86 4 39.3
07:30 1012 29.88 841 24.83 6.2 43.1 85 3.9 39.1
07:35 1012 29.88 841 24.83 6.4 43.5 85 4 39.3
07:40 1012 29.88 841 24.83 6.4 43.5 86 4.2 39.5
07:45 1012 29.88 841 24.83 6.4 43.5 85 4.1 39.3
07:50 1012 29.88 841 24.83 6.4 43.6 85 4.1 39.4
07:55 1012 29.88 841 24.83 6.4 43.4 86 4.1 39.4
08:00 1012 29.88 841 24.83 6.4 43.5 85 4 39.2
08:05 1012 29.88 841 24.83 6.4 43.6 84 3.9 39
08:10 1012 29.88 841 24.83 6.5 43.7 84 4 39.3
08:15 1012 29.88 841 24.83 6.5 43.8 84 4 39.2
08:20 1012 29.88 841 24.83 6.6 43.9 83 4 39.2
08:25 1012 29.88 841 24.83 6.5 43.7 84 3.9 39.1
08:30 1012 29.88 841 24.83 6.4 43.6 85 4 39.3
08:35 1012 29.88 841 24.83 6.5 43.7 84 4 39.2
08:40 1012 29.88 841 24.83 6.6 43.8 84 4 39.2
08:45 1012 29.88 841 24.83 6.6 43.8 84 4.1 39.3
08:50 1012 29.88 841 24.83 6.7 44 84 4.2 39.5
08:55 1012 29.88 841 24.83 6.7 44.1 84 4.1 39.5
09:00 1012 29.88 841 24.83 6.6 44 85 4.3 39.7
09:05 1012 29.88 841 24.83 6.6 43.9 86 4.5 40
09:10 1012 29.88 841 24.83 6.5 43.8 87 4.6 40.3
09:15 1012 29.88 841 24.83 6.5 43.7 88 4.6 40.3
09:20 1012 29.88 841 24.83 6.6 43.9 87 4.5 40.1
09:25 1012 29.88 841 24.83 6.7 44.1 86 4.5 40.1
09:30 1012 29.88 841 24.83 6.9 44.5 85 4.6 40.2
09:35 1012 29.88 841 24.83 7 44.7 84 4.5 40
09:40 1012 29.88 841 24.83 7.3 45.1 84 4.7 40.4
09:45 1011 29.85 841 24.83 7.4 45.4 81 4.4 40
09:50 1012 29.88 841 24.83 7.5 45.5 82 4.6 40.2
09:55 1011 29.85 841 24.83 7.4 45.3 83 4.7 40.4
10:00 1011 29.85 841 24.83 7.6 45.6 82 4.8 40.6
10:05 1011 29.85 840 24.81 7.6 45.6 82 4.7 40.4
10:10 1011 29.85 840 24.81 7.8 46 82 4.9 40.7
10:15 1011 29.85 840 24.81 8.1 46.7 79 4.7 40.5
10:20 1011 29.85 840 24.81 8 46.4 79 4.7 40.4
10:25 1011 29.85 840 24.81 8 46.3 80 4.7 40.4
10:30 1011 29.85 840 24.81 7.9 46.2 80 4.6 40.2
10:35 1011 29.85 840 24.81 8.1 46.5 79 4.6 40.2
10:40 1011 29.85 840 24.81 8.2 46.7 78 4.6 40.3
10:45 1011 29.85 840 24.81 8.2 46.8 78 4.6 40.3
10:50 1011 29.85 840 24.81 8.2 46.8 77 4.5 40
10:55 1011 29.85 840 24.81 8.2 46.7 78 4.5 40.1
11:00 1011 29.85 840 24.81 8.2 46.8 77 4.5 40.1
11:05 1011 29.85 840 24.81 8.2 46.7 78 4.6 40.3
11:10 1011 29.85 840 24.81 8 46.5 78 4.4 40
11:15 1011 29.85 840 24.81 8.1 46.6 79 4.7 40.4
11:20 1011 29.85 840 24.81 8.1 46.6 78 4.6 40.3
11:25 1011 29.85 840 24.81 8.3 46.9 78 4.6 40.3
11:30 1011 29.85 840 24.81 8.7 47.6 75 4.4 40
11:35 1011 29.85 840 24.81 9.2 48.5 73 4.7 40.4
11:40 1011 29.85 840 24.81 9.5 49.1 72 4.6 40.4
11:45 1011 29.85 840 24.81 9.5 49.2 72 4.7 40.4
11:50 1011 29.85 840 24.81 9.3 48.8 73 4.7 40.5
11:55 1011 29.85 840 24.81 9.4 48.9 73 4.8 40.7
12:00 1010 29.83 840 24.81 9.2 48.6 74 4.9 40.8
12:05 1010 29.83 840 24.81 9.4 49 73 4.9 40.9
12:10 1010 29.83 840 24.81 9.4 48.9 73 4.8 40.7
12:15 1010 29.83 840 24.81 9.6 49.3 72 4.9 40.8
12:20 1010 29.83 840 24.81 10.2 50.3 70 4.9 40.8
12:25 1010 29.83 840 24.81 10.2 50.3 70 5 41.1
12:30 1010 29.83 839 24.78 10 50 71 5 40.9
12:35 1010 29.83 839 24.78 10.2 50.3 69 4.7 40.4
12:40 1010 29.83 839 24.78 10.3 50.6 68 4.6 40.3
12:45 1010 29.83 839 24.78 10.6 51 67 4.7 40.5
12:50 1010 29.83 839 24.78 10.9 51.5 67 5.1 41.2
12:55 1010 29.83 839 24.78 10.8 51.4 68 5.1 41.2
13:00 1010 29.83 839 24.78 11 51.8 67 5.1 41.1
13:05 1010 29.83 839 24.78 10.9 51.7 66 5 41
13:10 1010 29.83 839 24.78 10.8 51.5 67 5 41
13:15 1010 29.83 839 24.78 10.7 51.2 68 5 41
13:20 1010 29.83 839 24.78 10.5 50.9 68 4.9 40.8
13:25 1010 29.83 839 24.78 10.5 51 69 5 41.1
13:30 1010 29.83 839 24.78 10.6 51.2 69 5.2 41.4
13:35 1010 29.83 839 24.78 10.7 51.2 69 5.2 41.3
13:40 1009 29.8 839 24.78 10.6 51.1 68 5.1 41.1
13:45 1010 29.83 839 24.78 10.3 50.5 69 5 40.9
13:50 1010 29.83 839 24.78 10.3 50.5 70 5 41
13:55 1009 29.8 839 24.78 10.3 50.6 70 5.1 41.1
14:00 1009 29.8 839 24.78 10.6 51 70 5.3 41.5
14:05 1009 29.8 839 24.78 10.6 51.1 70 5.3 41.6
14:10 1009 29.8 838 24.75 10.5 50.9 70 5.2 41.4
14:15 1009 29.8 838 24.75 10.3 50.6 70 5.2 41.3
14:20 1009 29.8 838 24.75 10.2 50.4 71 5.2 41.4
14:25 1009 29.8 838 24.75 10.4 50.7 70 5.2 41.4
14:30 1009 29.8 838 24.75 10.8 51.5 69 5.4 41.7
14:35 1009 29.8 838 24.75 11.4 52.5 67 5.5 41.9
14:40 1009 29.8 838 24.75 11.3 52.3 67 5.5 41.9
14:45 1009 29.8 838 24.75 11 51.8 68 5.5 41.8
14:50 1009 29.8 838 24.75 11.1 51.9 68 5.4 41.7
14:55 1009 29.8 838 24.75 11.5 52.6 67 5.7 42.2
15:00 1009 29.8 838 24.75 11.2 52.2 69 5.8 42.4
15:05 1009 29.8 838 24.75 10.9 51.6 71 5.8 42.5
15:10 1009 29.8 838 24.75 10.7 51.2 71 5.7 42.2
15:15 1009 29.8 839 24.78 10.4 50.7 73 5.7 42.3
15:20 1009 29.8 839 24.78 10 50 78 6.3 43.3
15:25 1009 29.8 839 24.78 9.6 49.4 80 6.4 43.6
15:30 1009 29.8 838 24.75 9.2 48.5 86 6.9 44.5
15:35 1009 29.8 838 24.75 9 48.1 86 6.8 44.3
15:40 1009 29.8 838 24.75 8.9 47.9 89 7.1 44.7
15:45 1009 29.8 838 24.75 8.9 48 87 6.9 44.3
15:50 1009 29.8 838 24.75 9.1 48.5 87 7.1 44.7
15:55 1009 29.8 838 24.75 9.7 49.4 83 6.9 44.4
16:00 1009 29.8 838 24.75 9.8 49.7 84 7.2 45
16:05 1009 29.8 838 24.75 9.9 49.9 79 6.5 43.8
16:10 1009 29.8 838 24.75 9.9 49.9 78 6.3 43.4
16:15 1009 29.8 838 24.75 10 50.1 78 6.4 43.6
16:20 1009 29.8 838 24.75 10.2 50.4 77 6.4 43.5
16:25 1009 29.8 838 24.75 10.3 50.6 77 6.5 43.6
16:30 1009 29.8 838 24.75 10.4 50.7 75 6.2 43.2
16:35 1009 29.8 838 24.75 10.3 50.6 74 6 42.7
16:40 1009 29.8 838 24.75 10.3 50.6 73 5.8 42.5
16:45 1009 29.8 838 24.75 10.4 50.6 74 6 42.8
16:50 1009 29.8 838 24.75 10.3 50.5 74 5.9 42.6
16:55 1009 29.8 838 24.75 10.2 50.3 75 5.9 42.6
17:00 1009 29.8 838 24.75 10.2 50.3 74 5.8 42.5
17:05 1009 29.8 838 24.75 10.2 50.3 74 5.8 42.5
17:10 1009 29.8 838 24.75 10.1 50.2 74 5.7 42.2
17:15 1009 29.8 838 24.75 10.1 50.3 74 5.7 42.3
17:20 1009 29.8 838 24.75 10.1 50.2 74 5.7 42.3
17:25 1009 29.8 838 24.75 10.1 50.2 75 5.9 42.7
17:30 1009 29.8 838 24.75 10.1 50.1 76 6.1 42.9
17:35 1009 29.8 838 24.75 10.1 50.1 76 6 42.8
17:40 1009 29.8 838 24.75 10 49.9 76 6 42.9
17:45 1009 29.8 838 24.75 9.9 49.8 77 6.1 42.9
17:50 1009 29.8 838 24.75 9.9 49.7 77 6.1 42.9
17:55 1009 29.8 838 24.75 9.8 49.7 77 6 42.9
18:00 1009 29.8 839 24.78 9.8 49.6 78 6.1 42.9
18:05 1010 29.83 839 24.78 9.7 49.5 80 6.5 43.6
18:10 1010 29.83 839 24.78 9.4 48.9 84 6.8 44.2
18:15 1010 29.83 839 24.78 9.1 48.4 85 6.7 44.1
18:20 1010 29.83 839 24.78 9 48.2 87 7 44.6
18:25 1010 29.83 839 24.78 8.9 48 87 6.9 44.4
18:30 1010 29.83 839 24.78 8.8 47.9 88 6.9 44.4
18:35 1010 29.83 839 24.78 8.7 47.6 88 6.9 44.4
18:40 1010 29.83 839 24.78 8.6 47.5 87 6.6 43.9
18:45 1010 29.83 839 24.78 8.6 47.5 88 6.7 44.1
18:50 1010 29.83 839 24.78 8.7 47.6 88 6.7 44.1
18:55 1010 29.83 839 24.78 8.7 47.7 87 6.7 44
19:00 1010 29.83 839 24.78 8.8 47.9 85 6.5 43.7
19:05 1010 29.83 839 24.78 9 48.1 85 6.6 43.9
19:10 1010 29.83 839 24.78 9 48.2 84 6.5 43.7
19:15 1010 29.83 839 24.78 9.1 48.4 83 6.3 43.4
19:20 1010 29.83 839 24.78 9.2 48.5 82 6.3 43.3
19:25 1010 29.83 839 24.78 9.3 48.8 82 6.4 43.6
19:30 1010 29.83 839 24.78 9.3 48.8 81 6.2 43.2
19:35 1010 29.83 839 24.78 9.3 48.8 81 6.3 43.3
19:40 1010 29.83 839 24.78 9.2 48.6 82 6.2 43.2
19:45 1010 29.83 839 24.78 9.2 48.6 83 6.4 43.6
19:50 1010 29.83 840 24.81 9.2 48.6 83 6.5 43.6
19:55 1010 29.83 840 24.81 9.2 48.6 83 6.5 43.7
20:00 1010 29.83 840 24.81 9.2 48.6 83 6.5 43.8
20:05 1010 29.83 839 24.78 9.1 48.4 84 6.5 43.7
20:10 1010 29.83 839 24.78 9 48.3 86 6.8 44.2
20:15 1010 29.83 839 24.78 8.9 48 86 6.7 44.1
20:20 1010 29.83 839 24.78 8.7 47.7 88 6.8 44.3
20:25 1010 29.83 839 24.78 8.5 47.3 88 6.6 43.9
20:30 1010 29.83 839 24.78 8.4 47.2 88 6.6 43.9
20:35 1010 29.83 839 24.78 8.3 47 89 6.6 43.9
20:40 1010 29.83 839 24.78 8.3 47 88 6.5 43.7
20:45 1010 29.83 839 24.78 8.4 47.1 87 6.4 43.5
20:50 1010 29.83 839 24.78 8.3 47 88 6.4 43.5
20:55 1010 29.83 839 24.78 8.4 47.1 87 6.4 43.5
21:00 1010 29.83 839 24.78 8.4 47.1 88 6.6 43.8
21:05 1010 29.83 839 24.78 8.3 46.9 88 6.5 43.6
21:10 1010 29.83 839 24.78 8.4 47 87 6.4 43.5
21:15 1010 29.83 839 24.78 8.4 47.1 88 6.5 43.7
21:20 1010 29.83 839 24.78 8.4 47.1 87 6.4 43.5
21:25 1010 29.83 839 24.78 8.5 47.3 87 6.5 43.7
21:30 1010 29.83 839 24.78 8.5 47.2 87 6.4 43.6
21:35 1010 29.83 839 24.78 8.5 47.3 86 6.3 43.3
21:40 1010 29.83 839 24.78 8.6 47.4 86 6.3 43.4
21:45 1010 29.83 839 24.78 8.6 47.4 86 6.4 43.6
21:50 1010 29.83 839 24.78 8.5 47.2 87 6.3 43.4
21:55 1010 29.83 839 24.78 8.4 47.1 87 6.4 43.4
22:00 1010 29.83 839 24.78 8.4 47.1 87 6.4 43.6
22:05 1010 29.83 839 24.78 8.4 47.1 87 6.4 43.5
22:10 1010 29.83 839 24.78 8.4 47.1 87 6.4 43.5
22:15 1010 29.83 839 24.78 8.3 47 87 6.3 43.3
22:20 1010 29.83 839 24.78 8.4 47.1 87 6.3 43.4
22:25 1010 29.83 839 24.78 8.4 47 87 6.4 43.4
22:30 1010 29.83 839 24.78 8.3 47 87 6.3 43.4
22:35 1010 29.83 839 24.78 8.3 47 88 6.4 43.5
22:40 1010 29.83 839 24.78 8.2 46.8 88 6.3 43.4
22:45 1010 29.83 839 24.78 8.2 46.8 88 6.3 43.4
22:50 1010 29.83 839 24.78 8.2 46.8 87 6.3 43.3
22:55 1010 29.83 839 24.78 8.3 46.9 87 6.2 43.2
23:00 1010 29.83 839 24.78 8.3 47 87 6.2 43.2
23:05 1010 29.83 839 24.78 8.3 47 86 6.2 43.2
23:10 1010 29.83 839 24.78 8.4 47.1 86 6.2 43.2
23:15 1010 29.83 839 24.78 8.5 47.2 86 6.2 43.2
23:20 1010 29.83 839 24.78 8.5 47.2 86 6.3 43.3
23:25 1010 29.83 839 24.78 8.5 47.2 86 6.2 43.2
23:30 1010 29.83 839 24.78 8.4 47.2 86 6.2 43.2
23:35 1010 29.83 839 24.78 8.4 47.1 86 6.1 43.1
23:40 1010 29.83 839 24.78 8.4 47.2 86 6.2 43.1
23:45 1010 29.83 839 24.78 8.5 47.2 86 6.2 43.1
23:50 1010 29.83 839 24.78 8.4 47.1 86 6.1 43
23:55 1010 29.83 839 24.78 8.4 47.2 86 6.2 43.2
24:00 1010 29.83 839 24.78 8.4 47.1 86 6.2 43.2